sensor_id;sensor_type;location;lat;lon;timestamp;P1;durP1;ratioP1;P2;durP2;ratioP2
29026;SDS011;16120;48.608;9.092;2023-09-19T00:01:01;108.00;;;10.50;;
29026;SDS011;16120;48.608;9.092;2023-09-19T00:04:56;107.70;;;10.53;;
29026;SDS011;16120;48.608;9.092;2023-09-19T00:08:51;107.83;;;10.10;;
29026;SDS011;16120;48.608;9.092;2023-09-19T00:12:47;107.97;;;10.60;;
29026;SDS011;16120;48.608;9.092;2023-09-19T00:16:43;107.97;;;10.77;;
29026;SDS011;16120;48.608;9.092;2023-09-19T00:20:39;107.70;;;10.37;;
29026;SDS011;16120;48.608;9.092;2023-09-19T00:24:34;107.90;;;10.57;;
29026;SDS011;16120;48.608;9.092;2023-09-19T00:28:29;107.67;;;10.50;;
29026;SDS011;16120;48.608;9.092;2023-09-19T00:32:25;107.47;;;9.83;;
29026;SDS011;16120;48.608;9.092;2023-09-19T00:36:21;107.73;;;10.53;;
29026;SDS011;16120;48.608;9.092;2023-09-19T00:40:16;107.60;;;10.30;;
29026;SDS011;16120;48.608;9.092;2023-09-19T00:44:11;107.10;;;9.40;;
29026;SDS011;16120;48.608;9.092;2023-09-19T00:48:08;107.47;;;9.57;;
29026;SDS011;16120;48.608;9.092;2023-09-19T00:52:04;108.00;;;10.50;;
29026;SDS011;16120;48.608;9.092;2023-09-19T00:55:59;107.67;;;10.90;;
29026;SDS011;16120;48.608;9.092;2023-09-19T00:59:54;107.70;;;9.77;;
29026;SDS011;16120;48.608;9.092;2023-09-19T01:03:51;107.63;;;10.43;;
29026;SDS011;16120;48.608;9.092;2023-09-19T01:07:47;107.60;;;9.80;;
29026;SDS011;16120;48.608;9.092;2023-09-19T01:11:43;107.70;;;10.10;;
29026;SDS011;16120;48.608;9.092;2023-09-19T01:15:40;108.40;;;10.40;;
29026;SDS011;16120;48.608;9.092;2023-09-19T01:19:53;107.63;;;9.67;;
29026;SDS011;16120;48.608;9.092;2023-09-19T01:24:07;107.23;;;9.47;;
29026;SDS011;16120;48.608;9.092;2023-09-19T01:28:06;108.07;;;10.50;;
29026;SDS011;16120;48.608;9.092;2023-09-19T01:32:06;108.00;;;10.20;;
29026;SDS011;16120;48.608;9.092;2023-09-19T01:36:03;108.37;;;10.80;;
29026;SDS011;16120;48.608;9.092;2023-09-19T01:39:59;108.67;;;10.57;;
29026;SDS011;16120;48.608;9.092;2023-09-19T01:43:55;108.07;;;10.00;;
29026;SDS011;16120;48.608;9.092;2023-09-19T01:47:52;107.87;;;9.90;;
29026;SDS011;16120;48.608;9.092;2023-09-19T01:51:51;108.80;;;10.90;;
29026;SDS011;16120;48.608;9.092;2023-09-19T01:55:48;108.10;;;10.77;;
29026;SDS011;16120;48.608;9.092;2023-09-19T01:59:45;108.17;;;10.27;;
29026;SDS011;16120;48.608;9.092;2023-09-19T02:03:44;108.43;;;10.77;;
29026;SDS011;16120;48.608;9.092;2023-09-19T02:07:41;108.10;;;9.83;;
29026;SDS011;16120;48.608;9.092;2023-09-19T02:11:36;107.87;;;10.50;;
29026;SDS011;16120;48.608;9.092;2023-09-19T02:15:31;108.10;;;10.40;;
29026;SDS011;16120;48.608;9.092;2023-09-19T02:19:28;107.93;;;10.40;;
29026;SDS011;16120;48.608;9.092;2023-09-19T02:23:23;108.07;;;10.30;;
29026;SDS011;16120;48.608;9.092;2023-09-19T02:27:18;107.77;;;10.17;;
29026;SDS011;16120;48.608;9.092;2023-09-19T02:31:13;108.33;;;9.70;;
29026;SDS011;16120;48.608;9.092;2023-09-19T02:35:10;107.90;;;10.27;;
29026;SDS011;16120;48.608;9.092;2023-09-19T02:39:05;108.87;;;10.73;;
29026;SDS011;16120;48.608;9.092;2023-09-19T02:43:00;108.27;;;10.30;;
29026;SDS011;16120;48.608;9.092;2023-09-19T02:46:56;107.80;;;9.60;;
29026;SDS011;16120;48.608;9.092;2023-09-19T02:50:52;107.97;;;9.50;;
29026;SDS011;16120;48.608;9.092;2023-09-19T02:54:48;108.17;;;9.90;;
29026;SDS011;16120;48.608;9.092;2023-09-19T02:58:43;108.30;;;10.07;;
29026;SDS011;16120;48.608;9.092;2023-09-19T03:02:38;107.90;;;10.00;;
29026;SDS011;16120;48.608;9.092;2023-09-19T03:06:35;108.00;;;10.03;;
29026;SDS011;16120;48.608;9.092;2023-09-19T03:10:30;108.20;;;9.60;;
29026;SDS011;16120;48.608;9.092;2023-09-19T03:14:25;108.57;;;10.23;;
29026;SDS011;16120;48.608;9.092;2023-09-19T03:18:20;107.90;;;9.93;;
29026;SDS011;16120;48.608;9.092;2023-09-19T03:22:17;108.10;;;10.63;;
29026;SDS011;16120;48.608;9.092;2023-09-19T03:26:12;108.90;;;10.03;;
29026;SDS011;16120;48.608;9.092;2023-09-19T03:30:08;108.30;;;10.03;;
29026;SDS011;16120;48.608;9.092;2023-09-19T03:34:03;108.37;;;10.07;;
29026;SDS011;16120;48.608;9.092;2023-09-19T03:37:59;108.10;;;9.90;;
29026;SDS011;16120;48.608;9.092;2023-09-19T03:41:55;108.30;;;10.17;;
29026;SDS011;16120;48.608;9.092;2023-09-19T03:45:50;107.57;;;9.40;;
29026;SDS011;16120;48.608;9.092;2023-09-19T03:49:45;108.50;;;10.00;;
29026;SDS011;16120;48.608;9.092;2023-09-19T03:53:42;108.20;;;9.87;;
29026;SDS011;16120;48.608;9.092;2023-09-19T03:57:37;107.80;;;9.73;;
29026;SDS011;16120;48.608;9.092;2023-09-19T04:01:32;108.10;;;9.63;;
29026;SDS011;16120;48.608;9.092;2023-09-19T04:05:27;109.10;;;10.93;;
29026;SDS011;16120;48.608;9.092;2023-09-19T04:09:24;108.20;;;10.30;;
29026;SDS011;16120;48.608;9.092;2023-09-19T04:13:19;108.13;;;10.17;;
29026;SDS011;16120;48.608;9.092;2023-09-19T04:17:14;108.07;;;10.00;;
29026;SDS011;16120;48.608;9.092;2023-09-19T04:21:09;107.83;;;9.77;;
29026;SDS011;16120;48.608;9.092;2023-09-19T04:25:06;107.77;;;9.80;;
29026;SDS011;16120;48.608;9.092;2023-09-19T04:29:01;108.70;;;10.50;;
29026;SDS011;16120;48.608;9.092;2023-09-19T04:32:57;108.70;;;10.77;;
29026;SDS011;16120;48.608;9.092;2023-09-19T04:36:52;108.10;;;9.77;;
29026;SDS011;16120;48.608;9.092;2023-09-19T04:40:48;108.30;;;10.13;;
29026;SDS011;16120;48.608;9.092;2023-09-19T04:44:43;108.30;;;10.40;;
29026;SDS011;16120;48.608;9.092;2023-09-19T04:48:39;107.80;;;10.07;;
29026;SDS011;16120;48.608;9.092;2023-09-19T04:52:34;108.37;;;9.87;;
29026;SDS011;16120;48.608;9.092;2023-09-19T04:56:30;108.37;;;10.30;;
29026;SDS011;16120;48.608;9.092;2023-09-19T05:00:26;108.47;;;10.57;;
29026;SDS011;16120;48.608;9.092;2023-09-19T05:04:21;108.20;;;10.03;;
29026;SDS011;16120;48.608;9.092;2023-09-19T05:08:16;108.60;;;10.10;;
29026;SDS011;16120;48.608;9.092;2023-09-19T05:12:13;108.27;;;10.13;;
29026;SDS011;16120;48.608;9.092;2023-09-19T05:16:08;108.33;;;10.00;;
29026;SDS011;16120;48.608;9.092;2023-09-19T05:20:03;107.90;;;9.90;;
29026;SDS011;16120;48.608;9.092;2023-09-19T05:23:58;108.47;;;9.97;;
29026;SDS011;16120;48.608;9.092;2023-09-19T05:27:55;109.67;;;10.53;;
29026;SDS011;16120;48.608;9.092;2023-09-19T05:31:50;109.50;;;11.10;;
29026;SDS011;16120;48.608;9.092;2023-09-19T05:35:45;108.10;;;10.27;;
29026;SDS011;16120;48.608;9.092;2023-09-19T05:39:42;109.63;;;10.43;;
29026;SDS011;16120;48.608;9.092;2023-09-19T05:43:39;108.00;;;9.90;;
29026;SDS011;16120;48.608;9.092;2023-09-19T05:47:34;108.43;;;10.23;;
29026;SDS011;16120;48.608;9.092;2023-09-19T05:51:29;108.80;;;10.27;;
29026;SDS011;16120;48.608;9.092;2023-09-19T05:55:24;108.27;;;10.73;;
29026;SDS011;16120;48.608;9.092;2023-09-19T05:59:21;108.63;;;10.40;;
29026;SDS011;16120;48.608;9.092;2023-09-19T06:03:16;108.40;;;10.37;;
29026;SDS011;16120;48.608;9.092;2023-09-19T06:07:11;108.67;;;10.93;;
29026;SDS011;16120;48.608;9.092;2023-09-19T06:11:06;108.30;;;10.00;;
29026;SDS011;16120;48.608;9.092;2023-09-19T06:15:03;108.40;;;10.50;;
29026;SDS011;16120;48.608;9.092;2023-09-19T06:18:59;108.20;;;10.37;;
29026;SDS011;16120;48.608;9.092;2023-09-19T06:22:54;108.50;;;10.50;;
29026;SDS011;16120;48.608;9.092;2023-09-19T06:26:50;108.00;;;10.70;;
29026;SDS011;16120;48.608;9.092;2023-09-19T06:30:46;108.00;;;10.30;;
29026;SDS011;16120;48.608;9.092;2023-09-19T06:34:42;108.20;;;10.37;;
29026;SDS011;16120;48.608;9.092;2023-09-19T06:38:37;108.00;;;10.80;;
29026;SDS011;16120;48.608;9.092;2023-09-19T06:42:32;108.37;;;10.53;;
29026;SDS011;16120;48.608;9.092;2023-09-19T06:46:28;108.17;;;10.57;;
29026;SDS011;16120;48.608;9.092;2023-09-19T06:50:24;108.27;;;10.50;;
29026;SDS011;16120;48.608;9.092;2023-09-19T06:54:19;108.57;;;11.20;;
29026;SDS011;16120;48.608;9.092;2023-09-19T06:58:14;107.90;;;10.70;;
29026;SDS011;16120;48.608;9.092;2023-09-19T07:02:11;107.60;;;10.37;;
29026;SDS011;16120;48.608;9.092;2023-09-19T07:06:06;108.00;;;10.53;;
29026;SDS011;16120;48.608;9.092;2023-09-19T07:10:01;107.87;;;11.27;;
29026;SDS011;16120;48.608;9.092;2023-09-19T07:13:57;107.70;;;10.77;;
29026;SDS011;16120;48.608;9.092;2023-09-19T07:17:53;107.50;;;10.47;;
29026;SDS011;16120;48.608;9.092;2023-09-19T07:21:49;108.00;;;11.40;;
29026;SDS011;16120;48.608;9.092;2023-09-19T07:25:44;107.10;;;10.73;;
29026;SDS011;16120;48.608;9.092;2023-09-19T07:29:39;107.30;;;11.03;;
29026;SDS011;16120;48.608;9.092;2023-09-19T07:33:36;106.70;;;10.40;;
29026;SDS011;16120;48.608;9.092;2023-09-19T07:37:31;107.40;;;10.27;;
29026;SDS011;16120;48.608;9.092;2023-09-19T07:41:26;107.17;;;10.57;;
29026;SDS011;16120;48.608;9.092;2023-09-19T07:45:22;106.83;;;10.60;;
29026;SDS011;16120;48.608;9.092;2023-09-19T07:49:18;106.37;;;10.03;;
29026;SDS011;16120;48.608;9.092;2023-09-19T07:53:13;106.60;;;10.87;;
29026;SDS011;16120;48.608;9.092;2023-09-19T07:57:08;106.90;;;10.77;;
29026;SDS011;16120;48.608;9.092;2023-09-19T08:01:04;107.20;;;11.40;;
29026;SDS011;16120;48.608;9.092;2023-09-19T08:05:01;105.97;;;10.10;;
29026;SDS011;16120;48.608;9.092;2023-09-19T08:08:56;106.20;;;10.80;;
29026;SDS011;16120;48.608;9.092;2023-09-19T08:12:51;106.30;;;11.60;;
29026;SDS011;16120;48.608;9.092;2023-09-19T08:16:46;106.27;;;11.00;;
29026;SDS011;16120;48.608;9.092;2023-09-19T08:20:43;106.30;;;10.70;;
29026;SDS011;16120;48.608;9.092;2023-09-19T08:24:38;106.30;;;11.27;;
29026;SDS011;16120;48.608;9.092;2023-09-19T08:28:33;106.50;;;11.57;;
29026;SDS011;16120;48.608;9.092;2023-09-19T08:32:31;106.57;;;11.43;;
29026;SDS011;16120;48.608;9.092;2023-09-19T08:36:27;106.47;;;11.20;;
29026;SDS011;16120;48.608;9.092;2023-09-19T08:40:22;106.57;;;11.27;;
29026;SDS011;16120;48.608;9.092;2023-09-19T08:44:18;106.20;;;11.53;;
29026;SDS011;16120;48.608;9.092;2023-09-19T08:48:17;105.97;;;10.30;;
29026;SDS011;16120;48.608;9.092;2023-09-19T08:52:16;105.50;;;11.10;;
29026;SDS011;16120;48.608;9.092;2023-09-19T08:56:14;105.60;;;10.90;;
29026;SDS011;16120;48.608;9.092;2023-09-19T09:00:12;105.50;;;10.83;;
29026;SDS011;16120;48.608;9.092;2023-09-19T09:04:07;105.57;;;10.27;;
29026;SDS011;16120;48.608;9.092;2023-09-19T09:08:05;105.47;;;10.97;;
29026;SDS011;16120;48.608;9.092;2023-09-19T09:12:00;104.80;;;10.27;;
29026;SDS011;16120;48.608;9.092;2023-09-19T09:15:55;105.77;;;11.27;;
29026;SDS011;16120;48.608;9.092;2023-09-19T09:19:51;105.23;;;10.53;;
29026;SDS011;16120;48.608;9.092;2023-09-19T09:23:48;104.63;;;10.80;;
29026;SDS011;16120;48.608;9.092;2023-09-19T09:27:44;104.70;;;10.10;;
29026;SDS011;16120;48.608;9.092;2023-09-19T09:31:40;104.77;;;10.97;;
29026;SDS011;16120;48.608;9.092;2023-09-19T09:35:35;105.57;;;10.70;;
29026;SDS011;16120;48.608;9.092;2023-09-19T09:39:32;104.57;;;10.30;;
29026;SDS011;16120;48.608;9.092;2023-09-19T09:43:28;103.77;;;10.20;;
29026;SDS011;16120;48.608;9.092;2023-09-19T09:51:33;104.77;;;10.37;;
29026;SDS011;16120;48.608;9.092;2023-09-19T09:55:30;103.57;;;9.30;;
29026;SDS011;16120;48.608;9.092;2023-09-19T09:59:47;103.63;;;9.57;;
29026;SDS011;16120;48.608;9.092;2023-09-19T10:03:42;104.37;;;9.77;;
29026;SDS011;16120;48.608;9.092;2023-09-19T10:07:38;103.17;;;9.73;;
29026;SDS011;16120;48.608;9.092;2023-09-19T10:11:34;104.83;;;9.77;;
29026;SDS011;16120;48.608;9.092;2023-09-19T10:15:31;103.30;;;9.40;;
29026;SDS011;16120;48.608;9.092;2023-09-19T10:19:29;103.30;;;9.37;;
29026;SDS011;16120;48.608;9.092;2023-09-19T10:23:24;102.97;;;9.40;;
29026;SDS011;16120;48.608;9.092;2023-09-19T10:27:21;103.27;;;9.50;;
29026;SDS011;16120;48.608;9.092;2023-09-19T10:31:18;102.97;;;10.07;;
29026;SDS011;16120;48.608;9.092;2023-09-19T10:35:14;101.97;;;9.43;;
29026;SDS011;16120;48.608;9.092;2023-09-19T10:39:09;101.90;;;9.30;;
29026;SDS011;16120;48.608;9.092;2023-09-19T10:43:07;103.30;;;9.97;;
29026;SDS011;16120;48.608;9.092;2023-09-19T10:47:06;101.90;;;9.10;;
29026;SDS011;16120;48.608;9.092;2023-09-19T10:51:02;102.57;;;10.17;;
29026;SDS011;16120;48.608;9.092;2023-09-19T10:54:59;103.03;;;10.67;;
29026;SDS011;16120;48.608;9.092;2023-09-19T10:59:06;101.57;;;9.27;;
29026;SDS011;16120;48.608;9.092;2023-09-19T11:03:17;101.97;;;9.30;;
29026;SDS011;16120;48.608;9.092;2023-09-19T11:07:12;102.37;;;9.03;;
29026;SDS011;16120;48.608;9.092;2023-09-19T11:11:10;101.73;;;9.40;;
29026;SDS011;16120;48.608;9.092;2023-09-19T11:28:36;101.80;;;8.40;;
29026;SDS011;16120;48.608;9.092;2023-09-19T11:36:41;101.90;;;9.70;;
29026;SDS011;16120;48.608;9.092;2023-09-19T11:40:37;101.90;;;9.03;;
29026;SDS011;16120;48.608;9.092;2023-09-19T11:44:34;101.50;;;8.77;;
29026;SDS011;16120;48.608;9.092;2023-09-19T11:48:29;100.70;;;8.67;;
29026;SDS011;16120;48.608;9.092;2023-09-19T11:52:24;101.40;;;8.50;;
29026;SDS011;16120;48.608;9.092;2023-09-19T11:56:20;101.30;;;9.68;;
29026;SDS011;16120;48.608;9.092;2023-09-19T12:00:18;101.57;;;9.57;;
29026;SDS011;16120;48.608;9.092;2023-09-19T12:04:13;101.57;;;9.03;;
29026;SDS011;16120;48.608;9.092;2023-09-19T12:08:08;100.70;;;8.50;;
29026;SDS011;16120;48.608;9.092;2023-09-19T12:12:04;101.30;;;9.50;;
29026;SDS011;16120;48.608;9.092;2023-09-19T12:16:00;101.40;;;9.00;;
29026;SDS011;16120;48.608;9.092;2023-09-19T12:19:56;101.77;;;9.63;;
29026;SDS011;16120;48.608;9.092;2023-09-19T12:28:07;100.80;;;8.57;;
29026;SDS011;16120;48.608;9.092;2023-09-19T12:32:04;101.30;;;8.80;;
29026;SDS011;16120;48.608;9.092;2023-09-19T12:35:59;101.40;;;9.53;;
29026;SDS011;16120;48.608;9.092;2023-09-19T12:40:03;101.70;;;9.40;;
29026;SDS011;16120;48.608;9.092;2023-09-19T12:43:59;101.20;;;9.30;;
29026;SDS011;16120;48.608;9.092;2023-09-19T12:52:10;101.67;;;8.87;;
29026;SDS011;16120;48.608;9.092;2023-09-19T12:56:05;101.67;;;9.40;;
29026;SDS011;16120;48.608;9.092;2023-09-19T13:00:01;101.67;;;9.17;;
29026;SDS011;16120;48.608;9.092;2023-09-19T13:04:15;101.47;;;9.20;;
29026;SDS011;16120;48.608;9.092;2023-09-19T13:08:18;100.57;;;9.20;;
29026;SDS011;16120;48.608;9.092;2023-09-19T13:16:23;101.47;;;9.73;;
29026;SDS011;16120;48.608;9.092;2023-09-19T13:20:22;101.32;;;9.07;;
29026;SDS011;16120;48.608;9.092;2023-09-19T13:24:19;101.07;;;9.80;;
29026;SDS011;16120;48.608;9.092;2023-09-19T13:28:14;101.10;;;9.10;;
29026;SDS011;16120;48.608;9.092;2023-09-19T13:32:09;101.43;;;9.20;;
29026;SDS011;16120;48.608;9.092;2023-09-19T13:36:05;101.47;;;9.10;;
29026;SDS011;16120;48.608;9.092;2023-09-19T13:40:01;101.87;;;9.17;;
29026;SDS011;16120;48.608;9.092;2023-09-19T13:43:56;101.80;;;8.70;;
29026;SDS011;16120;48.608;9.092;2023-09-19T13:47:52;102.40;;;9.53;;
29026;SDS011;16120;48.608;9.092;2023-09-19T13:51:47;102.03;;;9.35;;
29026;SDS011;16120;48.608;9.092;2023-09-19T13:55:43;101.90;;;10.00;;
29026;SDS011;16120;48.608;9.092;2023-09-19T13:59:39;100.50;;;9.20;;
29026;SDS011;16120;48.608;9.092;2023-09-19T14:03:34;101.40;;;8.87;;
29026;SDS011;16120;48.608;9.092;2023-09-19T14:07:29;101.20;;;9.40;;
29026;SDS011;16120;48.608;9.092;2023-09-19T14:11:25;101.40;;;9.00;;
29026;SDS011;16120;48.608;9.092;2023-09-19T14:15:21;101.60;;;8.83;;
29026;SDS011;16120;48.608;9.092;2023-09-19T14:19:16;101.17;;;9.10;;
29026;SDS011;16120;48.608;9.092;2023-09-19T14:23:11;101.63;;;8.67;;
29026;SDS011;16120;48.608;9.092;2023-09-19T14:27:08;100.60;;;9.50;;
29026;SDS011;16120;48.608;9.092;2023-09-19T14:31:03;101.47;;;8.40;;
29026;SDS011;16120;48.608;9.092;2023-09-19T14:34:58;100.63;;;8.90;;
29026;SDS011;16120;48.608;9.092;2023-09-19T14:38:54;101.17;;;9.07;;
29026;SDS011;16120;48.608;9.092;2023-09-19T14:42:51;100.80;;;9.20;;
29026;SDS011;16120;48.608;9.092;2023-09-19T14:46:46;100.87;;;8.63;;
29026;SDS011;16120;48.608;9.092;2023-09-19T14:50:41;101.37;;;8.47;;
29026;SDS011;16120;48.608;9.092;2023-09-19T14:54:37;101.47;;;8.73;;
29026;SDS011;16120;48.608;9.092;2023-09-19T14:58:34;101.23;;;8.63;;
29026;SDS011;16120;48.608;9.092;2023-09-19T15:02:29;101.83;;;9.20;;
29026;SDS011;16120;48.608;9.092;2023-09-19T15:06:30;101.17;;;8.87;;
29026;SDS011;16120;48.608;9.092;2023-09-19T15:10:25;101.30;;;8.73;;
29026;SDS011;16120;48.608;9.092;2023-09-19T15:14:22;101.00;;;8.97;;
29026;SDS011;16120;48.608;9.092;2023-09-19T15:18:17;101.57;;;9.20;;
29026;SDS011;16120;48.608;9.092;2023-09-19T15:22:12;101.10;;;8.93;;
29026;SDS011;16120;48.608;9.092;2023-09-19T15:26:09;102.00;;;8.67;;
29026;SDS011;16120;48.608;9.092;2023-09-19T15:30:06;100.97;;;9.63;;
29026;SDS011;16120;48.608;9.092;2023-09-19T15:34:02;101.30;;;9.00;;
29026;SDS011;16120;48.608;9.092;2023-09-19T15:37:57;100.70;;;8.73;;
29026;SDS011;16120;48.608;9.092;2023-09-19T15:41:52;100.77;;;9.00;;
29026;SDS011;16120;48.608;9.092;2023-09-19T15:45:49;101.37;;;9.10;;
29026;SDS011;16120;48.608;9.092;2023-09-19T15:49:44;100.87;;;8.73;;
29026;SDS011;16120;48.608;9.092;2023-09-19T15:53:41;101.17;;;9.03;;
29026;SDS011;16120;48.608;9.092;2023-09-19T15:57:36;101.13;;;8.77;;
29026;SDS011;16120;48.608;9.092;2023-09-19T16:01:33;100.67;;;8.60;;
29026;SDS011;16120;48.608;9.092;2023-09-19T16:05:28;101.13;;;8.70;;
29026;SDS011;16120;48.608;9.092;2023-09-19T16:09:29;100.90;;;9.10;;
29026;SDS011;16120;48.608;9.092;2023-09-19T16:13:24;100.87;;;9.03;;
29026;SDS011;16120;48.608;9.092;2023-09-19T16:17:21;101.57;;;9.47;;
29026;SDS011;16120;48.608;9.092;2023-09-19T16:21:16;101.40;;;9.40;;
29026;SDS011;16120;48.608;9.092;2023-09-19T16:25:12;101.67;;;9.77;;
29026;SDS011;16120;48.608;9.092;2023-09-19T16:29:07;102.67;;;9.63;;
29026;SDS011;16120;48.608;9.092;2023-09-19T16:33:04;101.77;;;9.20;;
29026;SDS011;16120;48.608;9.092;2023-09-19T16:37:00;101.60;;;9.27;;
29026;SDS011;16120;48.608;9.092;2023-09-19T16:40:55;101.67;;;9.63;;
29026;SDS011;16120;48.608;9.092;2023-09-19T16:44:51;102.17;;;9.87;;
29026;SDS011;16120;48.608;9.092;2023-09-19T16:48:50;102.17;;;9.57;;
29026;SDS011;16120;48.608;9.092;2023-09-19T16:52:45;101.60;;;9.00;;
29026;SDS011;16120;48.608;9.092;2023-09-19T16:56:40;102.27;;;9.67;;
29026;SDS011;16120;48.608;9.092;2023-09-19T17:00:35;102.17;;;9.07;;
29026;SDS011;16120;48.608;9.092;2023-09-19T17:04:32;102.20;;;9.53;;
29026;SDS011;16120;48.608;9.092;2023-09-19T17:08:29;102.33;;;9.80;;
29026;SDS011;16120;48.608;9.092;2023-09-19T17:12:24;102.70;;;9.77;;
29026;SDS011;16120;48.608;9.092;2023-09-19T17:16:19;103.20;;;9.47;;
29026;SDS011;16120;48.608;9.092;2023-09-19T17:20:16;102.27;;;9.83;;
29026;SDS011;16120;48.608;9.092;2023-09-19T17:24:11;102.50;;;10.30;;
29026;SDS011;16120;48.608;9.092;2023-09-19T17:28:06;103.37;;;10.17;;
29026;SDS011;16120;48.608;9.092;2023-09-19T17:32:02;103.30;;;10.73;;
29026;SDS011;16120;48.608;9.092;2023-09-19T17:36:06;103.90;;;10.73;;
29026;SDS011;16120;48.608;9.092;2023-09-19T17:40:01;104.07;;;10.87;;
29026;SDS011;16120;48.608;9.092;2023-09-19T17:43:58;105.30;;;10.70;;
29026;SDS011;16120;48.608;9.092;2023-09-19T17:47:53;103.47;;;10.07;;
29026;SDS011;16120;48.608;9.092;2023-09-19T17:51:50;104.57;;;10.47;;
29026;SDS011;16120;48.608;9.092;2023-09-19T17:55:45;105.57;;;10.30;;
29026;SDS011;16120;48.608;9.092;2023-09-19T17:59:40;103.90;;;10.60;;
29026;SDS011;16120;48.608;9.092;2023-09-19T18:03:36;105.17;;;11.40;;
29026;SDS011;16120;48.608;9.092;2023-09-19T18:07:33;104.30;;;10.87;;
29026;SDS011;16120;48.608;9.092;2023-09-19T18:11:28;105.00;;;10.00;;
29026;SDS011;16120;48.608;9.092;2023-09-19T18:15:23;104.97;;;9.67;;
29026;SDS011;16120;48.608;9.092;2023-09-19T18:19:18;105.70;;;10.30;;
29026;SDS011;16120;48.608;9.092;2023-09-19T18:23:15;106.17;;;11.50;;
29026;SDS011;16120;48.608;9.092;2023-09-19T18:27:10;105.87;;;10.57;;
29026;SDS011;16120;48.608;9.092;2023-09-19T18:31:05;106.17;;;11.97;;
29026;SDS011;16120;48.608;9.092;2023-09-19T18:35:00;106.60;;;10.77;;
29026;SDS011;16120;48.608;9.092;2023-09-19T18:38:57;105.73;;;10.07;;
29026;SDS011;16120;48.608;9.092;2023-09-19T18:42:52;106.10;;;10.70;;
29026;SDS011;16120;48.608;9.092;2023-09-19T18:46:47;106.57;;;11.17;;
29026;SDS011;16120;48.608;9.092;2023-09-19T18:50:42;106.53;;;10.57;;
29026;SDS011;16120;48.608;9.092;2023-09-19T18:54:39;106.17;;;9.77;;
29026;SDS011;16120;48.608;9.092;2023-09-19T18:58:34;106.77;;;11.20;;
29026;SDS011;16120;48.608;9.092;2023-09-19T19:02:29;106.00;;;9.30;;
29026;SDS011;16120;48.608;9.092;2023-09-19T19:06:25;106.22;;;9.82;;
29026;SDS011;16120;48.608;9.092;2023-09-19T19:10:21;107.93;;;10.60;;
29026;SDS011;16120;48.608;9.092;2023-09-19T19:14:16;106.70;;;10.40;;
29026;SDS011;16120;48.608;9.092;2023-09-19T19:18:11;106.93;;;10.23;;
29026;SDS011;16120;48.608;9.092;2023-09-19T19:22:07;107.10;;;10.40;;
29026;SDS011;16120;48.608;9.092;2023-09-19T19:26:03;106.80;;;10.27;;
29026;SDS011;16120;48.608;9.092;2023-09-19T19:29:59;106.87;;;10.30;;
29026;SDS011;16120;48.608;9.092;2023-09-19T19:33:54;107.77;;;11.93;;
29026;SDS011;16120;48.608;9.092;2023-09-19T19:37:49;107.17;;;10.87;;
29026;SDS011;16120;48.608;9.092;2023-09-19T19:41:46;107.63;;;10.83;;
29026;SDS011;16120;48.608;9.092;2023-09-19T19:45:42;107.40;;;9.73;;
29026;SDS011;16120;48.608;9.092;2023-09-19T19:49:37;107.20;;;10.43;;
29026;SDS011;16120;48.608;9.092;2023-09-19T19:53:33;107.80;;;10.60;;
29026;SDS011;16120;48.608;9.092;2023-09-19T19:57:29;107.87;;;10.67;;
29026;SDS011;16120;48.608;9.092;2023-09-19T20:01:26;107.60;;;10.37;;
29026;SDS011;16120;48.608;9.092;2023-09-19T20:05:21;108.00;;;10.30;;
29026;SDS011;16120;48.608;9.092;2023-09-19T20:09:17;108.43;;;10.20;;
29026;SDS011;16120;48.608;9.092;2023-09-19T20:13:13;108.70;;;10.07;;
29026;SDS011;16120;48.608;9.092;2023-09-19T20:17:09;108.90;;;10.70;;
29026;SDS011;16120;48.608;9.092;2023-09-19T20:21:04;109.07;;;10.50;;
29026;SDS011;16120;48.608;9.092;2023-09-19T20:24:59;108.27;;;9.77;;
29026;SDS011;16120;48.608;9.092;2023-09-19T20:28:56;108.90;;;11.00;;
29026;SDS011;16120;48.608;9.092;2023-09-19T20:32:51;108.57;;;10.00;;
29026;SDS011;16120;48.608;9.092;2023-09-19T20:36:46;109.77;;;10.60;;
29026;SDS011;16120;48.608;9.092;2023-09-19T20:40:41;109.37;;;11.20;;
29026;SDS011;16120;48.608;9.092;2023-09-19T20:44:38;108.17;;;9.50;;
29026;SDS011;16120;48.608;9.092;2023-09-19T20:48:33;109.07;;;9.80;;
29026;SDS011;16120;48.608;9.092;2023-09-19T20:52:28;108.40;;;9.53;;
29026;SDS011;16120;48.608;9.092;2023-09-19T20:56:23;109.10;;;9.67;;
29026;SDS011;16120;48.608;9.092;2023-09-19T21:00:20;108.17;;;9.77;;
29026;SDS011;16120;48.608;9.092;2023-09-19T21:04:15;108.50;;;9.67;;
29026;SDS011;16120;48.608;9.092;2023-09-19T21:08:10;109.00;;;9.80;;
29026;SDS011;16120;48.608;9.092;2023-09-19T21:12:06;108.67;;;9.40;;
29026;SDS011;16120;48.608;9.092;2023-09-19T21:16:02;108.40;;;9.43;;
29026;SDS011;16120;48.608;9.092;2023-09-19T21:19:59;108.87;;;8.87;;
29026;SDS011;16120;48.608;9.092;2023-09-19T21:23:54;109.50;;;9.97;;
29026;SDS011;16120;48.608;9.092;2023-09-19T21:27:49;109.00;;;9.60;;
29026;SDS011;16120;48.608;9.092;2023-09-19T21:31:46;109.40;;;9.90;;
29026;SDS011;16120;48.608;9.092;2023-09-19T21:35:43;109.17;;;9.37;;
29026;SDS011;16120;48.608;9.092;2023-09-19T21:39:38;109.77;;;9.77;;
29026;SDS011;16120;48.608;9.092;2023-09-19T21:43:33;109.30;;;9.70;;
29026;SDS011;16120;48.608;9.092;2023-09-19T21:47:30;109.80;;;9.80;;
29026;SDS011;16120;48.608;9.092;2023-09-19T21:51:25;109.60;;;9.60;;
29026;SDS011;16120;48.608;9.092;2023-09-19T21:55:24;109.00;;;9.03;;
29026;SDS011;16120;48.608;9.092;2023-09-19T21:59:19;109.20;;;8.93;;
29026;SDS011;16120;48.608;9.092;2023-09-19T22:03:16;108.80;;;9.10;;
29026;SDS011;16120;48.608;9.092;2023-09-19T22:07:11;109.40;;;9.53;;
29026;SDS011;16120;48.608;9.092;2023-09-19T22:11:06;109.27;;;9.33;;
29026;SDS011;16120;48.608;9.092;2023-09-19T22:15:01;109.30;;;9.30;;
29026;SDS011;16120;48.608;9.092;2023-09-19T22:18:58;109.73;;;9.30;;
29026;SDS011;16120;48.608;9.092;2023-09-19T22:22:53;110.30;;;9.40;;
29026;SDS011;16120;48.608;9.092;2023-09-19T22:26:49;109.80;;;10.40;;
29026;SDS011;16120;48.608;9.092;2023-09-19T22:30:44;109.77;;;9.00;;
29026;SDS011;16120;48.608;9.092;2023-09-19T22:34:40;109.43;;;8.93;;
29026;SDS011;16120;48.608;9.092;2023-09-19T22:38:35;109.07;;;9.20;;
29026;SDS011;16120;48.608;9.092;2023-09-19T22:42:31;109.27;;;9.00;;
29026;SDS011;16120;48.608;9.092;2023-09-19T22:46:26;109.27;;;9.40;;
29026;SDS011;16120;48.608;9.092;2023-09-19T22:50:22;109.70;;;9.13;;
29026;SDS011;16120;48.608;9.092;2023-09-19T22:54:18;110.00;;;9.33;;
29026;SDS011;16120;48.608;9.092;2023-09-19T22:58:13;109.87;;;9.50;;
29026;SDS011;16120;48.608;9.092;2023-09-19T23:02:08;109.17;;;8.80;;
29026;SDS011;16120;48.608;9.092;2023-09-19T23:06:05;109.37;;;9.23;;
29026;SDS011;16120;48.608;9.092;2023-09-19T23:10:01;109.67;;;8.87;;
29026;SDS011;16120;48.608;9.092;2023-09-19T23:13:56;109.90;;;9.20;;
29026;SDS011;16120;48.608;9.092;2023-09-19T23:17:51;110.57;;;8.80;;
29026;SDS011;16120;48.608;9.092;2023-09-19T23:21:48;110.17;;;8.97;;
29026;SDS011;16120;48.608;9.092;2023-09-19T23:25:43;109.97;;;8.67;;